createdAt,value
2022-11-01T00:00:06.829Z,101899.22
2022-11-01T00:03:18.139Z,101895.00
2022-11-01T00:06:22.913Z,101891.59
2022-11-01T00:09:27.557Z,101889.91
2022-11-01T00:12:32.732Z,101895.06
2022-11-01T00:15:38.952Z,101898.47
2022-11-01T00:18:43.738Z,101894.19
2022-11-01T00:21:48.738Z,101898.50
2022-11-01T00:24:54.960Z,101895.94
2022-11-01T00:28:00.494Z,101895.09
2022-11-01T00:31:10.258Z,101901.06
2022-11-01T00:34:17.719Z,101906.25
2022-11-01T00:37:22.977Z,101908.78
2022-11-01T00:40:28.596Z,101904.53
2022-11-01T00:43:33.959Z,101907.94
2022-11-01T00:46:40.036Z,101902.84
2022-11-01T00:49:44.881Z,101907.09
2022-11-01T00:52:50.071Z,101896.06
2022-11-01T00:55:54.853Z,101907.97
2022-11-01T00:58:59.520Z,101911.38
2022-11-01T01:02:05.701Z,101912.25
2022-11-01T01:05:12.618Z,101906.31
2022-11-01T01:08:17.983Z,101905.47
2022-11-01T01:11:22.767Z,101902.94
2022-11-01T01:14:32.220Z,101896.16
2022-11-01T01:17:39.013Z,101904.63
2022-11-01T01:20:43.874Z,101896.19
2022-11-01T01:23:49.013Z,101890.25
2022-11-01T01:27:11.146Z,101891.13
2022-11-01T01:30:16.264Z,101897.06
2022-11-01T01:33:22.522Z,101899.63
2022-11-01T01:36:27.164Z,101892.81
2022-11-01T01:39:32.183Z,101898.78
2022-11-01T01:42:39.236Z,101900.47
2022-11-01T01:45:44.217Z,101904.72
2022-11-01T01:48:54.817Z,101896.22
2022-11-01T01:51:59.825Z,101900.47
2022-11-01T01:55:08.854Z,101892.03
2022-11-01T01:58:16.305Z,101896.28
2022-11-01T02:01:21.104Z,101894.59
2022-11-01T02:04:33.310Z,101897.13
2022-11-01T02:07:38.567Z,101895.44
2022-11-01T02:10:43.385Z,101909.03
2022-11-01T02:13:48.444Z,101896.28
2022-11-01T02:17:00.031Z,101901.41
2022-11-01T02:20:32.633Z,101907.34
2022-11-01T02:24:14.706Z,101902.19
2022-11-01T02:27:25.612Z,101897.94
2022-11-01T02:30:40.670Z,101890.28
2022-11-01T02:33:48.841Z,101901.31
2022-11-01T02:37:00.753Z,101898.66
2022-11-01T02:40:11.241Z,101901.22
2022-11-01T02:43:23.816Z,101900.34
2022-11-01T02:46:51.103Z,101888.41
2022-11-01T02:50:02.003Z,101884.13
2022-11-01T02:53:07.012Z,101879.88
2022-11-01T02:56:13.156Z,101884.13
2022-11-01T02:59:24.366Z,101882.41
2022-11-01T03:02:40.468Z,101883.22
2022-11-01T03:05:59.376Z,101883.19
2022-11-01T03:09:07.349Z,101884.88
2022-11-01T03:12:20.303Z,101877.22
2022-11-01T03:15:28.853Z,101879.75
2022-11-01T03:18:37.243Z,101882.22
2022-11-01T03:21:48.673Z,101878.81
2022-11-01T03:24:58.009Z,101877.97
2022-11-01T03:28:07.161Z,101878.81
2022-11-01T03:31:14.157Z,101879.66
2022-11-01T03:34:20.637Z,101877.94
2022-11-01T03:37:28.112Z,101871.97
2022-11-01T03:40:34.441Z,101882.19
2022-11-01T03:43:39.525Z,101875.38
2022-11-01T03:46:44.424Z,101877.94
2022-11-01T03:49:49.073Z,101875.41
2022-11-01T03:52:55.153Z,101874.50
2022-11-01T03:55:59.784Z,101871.09
2022-11-01T03:59:04.905Z,101866.03
2022-11-01T04:05:17.067Z,101868.59
2022-11-01T04:08:23.240Z,101873.69
2022-11-01T04:11:28.126Z,101870.28
2022-11-01T04:14:50.493Z,101866.91
2022-11-01T04:18:22.829Z,101870.28
2022-11-01T04:21:28.179Z,101872.03
2022-11-01T04:24:34.190Z,101863.50
2022-11-01T04:27:38.818Z,101859.25
2022-11-01T04:30:44.247Z,101861.84
2022-11-01T04:33:49.162Z,101868.63
2022-11-01T04:36:54.121Z,101854.19
2022-11-01T04:40:00.134Z,101856.72
2022-11-01T04:43:05.145Z,101863.50
2022-11-01T04:46:09.864Z,101854.13
2022-11-01T04:49:14.917Z,101848.13
2022-11-01T04:52:19.987Z,101857.53
2022-11-01T04:55:25.992Z,101855.84
2022-11-01T04:58:31.062Z,101850.66
2022-11-01T05:01:36.230Z,101857.44
2022-11-01T05:04:41.009Z,101850.59
2022-11-01T05:07:45.718Z,101849.75
2022-11-01T05:10:55.509Z,101860.81
2022-11-01T05:14:00.189Z,101853.06
2022-11-01T05:17:04.812Z,101843.78
2022-11-01T05:20:11.255Z,101851.44
2022-11-01T05:23:17.561Z,101854.03
2022-11-01T05:26:23.899Z,101851.44
2022-11-01T05:29:32.906Z,101852.28
2022-11-01T05:32:38.097Z,101853.16
2022-11-01T05:35:42.964Z,101854.00
2022-11-01T05:38:48.036Z,101844.66
2022-11-01T05:41:56.845Z,101850.59
2022-11-01T05:45:05.373Z,101847.22
2022-11-01T05:48:13.503Z,101848.97
2022-11-01T05:51:18.843Z,101843.09
2022-11-01T05:54:23.509Z,101847.31
2022-11-01T05:57:33.234Z,101853.28
2022-11-01T06:00:38.232Z,101855.78
2022-11-01T06:03:43.460Z,101859.25
2022-11-01T06:06:48.175Z,101863.50
2022-11-01T06:09:52.742Z,101855.03
2022-11-01T06:12:59.167Z,101865.28
2022-11-01T06:16:06.592Z,101867.78
2022-11-01T06:19:12.533Z,101855.84
2022-11-01T06:22:17.137Z,101868.63
2022-11-01T06:25:21.961Z,101865.22
2022-11-01T06:28:28.433Z,101856.72
2022-11-01T06:31:33.545Z,101870.38
2022-11-01T06:34:42.248Z,101867.78
2022-11-01T06:37:49.944Z,101870.31
2022-11-01T06:40:54.773Z,101870.31
2022-11-01T06:44:01.005Z,101861.78
2022-11-01T06:47:05.789Z,101863.44
2022-11-01T06:50:12.288Z,101861.69
2022-11-01T06:53:17.239Z,101860.00
2022-11-01T06:56:22.103Z,101861.66
2022-11-01T06:59:28.218Z,101850.56
2022-11-01T07:02:32.983Z,101862.41
2022-11-01T07:05:39.122Z,101860.66
2022-11-01T07:08:43.884Z,101860.66
2022-11-01T07:11:48.477Z,101865.75
2022-11-01T07:14:54.536Z,101863.13
2022-11-01T07:18:00.581Z,101857.97
2022-11-01T07:21:06.622Z,101859.66
2022-11-01T07:24:12.854Z,101862.19
2022-11-01T07:27:20.466Z,101865.50
2022-11-01T07:30:27.938Z,101866.38
2022-11-01T07:33:33.075Z,101868.03
2022-11-01T07:36:38.373Z,101869.69
2022-11-01T07:39:43.160Z,101857.78
2022-11-01T07:42:47.986Z,101869.59
2022-11-01T07:45:54.050Z,101869.59
2022-11-01T07:49:00.488Z,101859.34
2022-11-01T07:52:05.430Z,101859.31
2022-11-01T07:55:10.935Z,101868.59
2022-11-01T07:58:16.621Z,101870.28
2022-11-01T08:01:22.730Z,101870.28
2022-11-01T08:04:27.720Z,101867.63
2022-11-01T08:07:33.008Z,101868.44
2022-11-01T08:10:38.455Z,101864.19
2022-11-01T08:13:43.028Z,101865.03
2022-11-01T08:16:55.703Z,101863.22
2022-11-01T08:20:00.352Z,101860.63
2022-11-01T08:23:06.288Z,101860.59
2022-11-01T08:26:12.453Z,101857.97
2022-11-01T08:29:17.188Z,101849.41
2022-11-01T08:32:23.739Z,101852.78
2022-11-01T08:35:28.881Z,101859.59
2022-11-01T08:38:33.580Z,101847.63
2022-11-01T08:41:38.552Z,101858.66
2022-11-01T08:44:43.538Z,101845.91
2022-11-01T08:47:49.544Z,101849.28
2022-11-01T08:50:54.236Z,101846.66
2022-11-01T08:53:59.515Z,101843.19
2022-11-01T08:57:04.637Z,101847.41
2022-11-01T09:00:11.284Z,101843.97
2022-11-01T09:03:17.541Z,101849.91
2022-11-01T09:06:22.255Z,101850.75
2022-11-01T09:09:27.229Z,101854.19
2022-11-01T09:12:32.306Z,101847.31
2022-11-01T09:15:37.312Z,101846.41
2022-11-01T09:18:43.525Z,101837.88
2022-11-01T09:21:48.657Z,101838.63
2022-11-01T09:24:55.486Z,101835.22
2022-11-01T09:28:00.154Z,101836.06
2022-11-01T09:31:19.889Z,101830.06
2022-11-01T09:34:26.983Z,101842.88
2022-11-01T09:37:32.542Z,101835.09
2022-11-01T09:40:45.306Z,101844.47
2022-11-01T09:43:51.721Z,101857.28
2022-11-01T09:47:02.506Z,101849.53
2022-11-01T09:50:18.678Z,101835.88
2022-11-01T09:53:25.992Z,101836.69
2022-11-01T09:56:35.648Z,101836.69
2022-11-01T09:59:46.954Z,101830.66
2022-11-01T10:03:29.307Z,101831.69
2022-11-01T10:06:39.065Z,101829.00
2022-11-01T10:09:51.105Z,101821.31
2022-11-01T10:13:13.069Z,101822.91
2022-11-01T10:16:28.432Z,101823.75
2022-11-01T10:19:35.438Z,101829.72
2022-11-01T10:22:44.143Z,101828.00
2022-11-01T10:25:54.775Z,101826.28
2022-11-01T10:29:06.630Z,101819.50
2022-11-01T10:32:25.036Z,101821.13
2022-11-01T10:35:34.124Z,101816.00
2022-11-01T10:39:16.606Z,101816.09
2022-11-01T10:42:10.949Z,101814.31
2022-11-01T10:45:20.645Z,101816.00
2022-11-01T10:48:36.854Z,101818.66
2022-11-01T10:51:41.926Z,101816.03
2022-11-01T10:54:48.456Z,101815.88
2022-11-01T10:57:57.425Z,101815.13
2022-11-01T11:01:03.974Z,101811.63
2022-11-01T11:04:12.597Z,101809.16
2022-11-01T11:07:21.448Z,101810.72
2022-11-01T11:10:30.992Z,101814.09
2022-11-01T11:13:36.767Z,101812.38
2022-11-01T11:16:46.865Z,101799.53
2022-11-01T11:19:54.326Z,101797.97
2022-11-01T11:23:04.287Z,101792.88
2022-11-01T11:26:16.867Z,101799.13
2022-11-01T11:29:38.625Z,101792.09
2022-11-01T11:32:49.440Z,101793.63
2022-11-01T11:35:56.887Z,101791.13
2022-11-01T11:39:02.754Z,101796.13
2022-11-01T11:42:18.973Z,101790.13
2022-11-01T11:45:28.700Z,101781.59
2022-11-01T11:48:33.628Z,101788.47
2022-11-01T11:51:39.450Z,101780.06
2022-11-01T11:54:44.580Z,101774.81
2022-11-01T11:57:55.049Z,101780.78
2022-11-01T12:01:04.004Z,101779.13
2022-11-01T12:04:10.918Z,101772.19
2022-11-01T12:07:27.648Z,101770.56
2022-11-01T12:10:35.661Z,101768.81
2022-11-01T12:13:44.708Z,101769.59
2022-11-01T12:16:49.616Z,101753.31
2022-11-01T12:20:20.001Z,101762.00
2022-11-01T12:23:32.576Z,101755.78
2022-11-01T12:26:38.375Z,101751.63
2022-11-01T12:29:51.131Z,101761.13
2022-11-01T12:32:58.225Z,101754.22
2022-11-01T12:36:03.061Z,101740.63
2022-11-01T12:39:26.773Z,101747.44
2022-11-01T12:42:35.872Z,101738.03
2022-11-01T12:45:51.181Z,101742.34
2022-11-01T12:49:00.735Z,101741.38
2022-11-01T12:52:14.723Z,101739.63
2022-11-01T12:55:28.563Z,101741.34
2022-11-01T12:58:36.040Z,101731.19
2022-11-01T13:01:51.634Z,101728.69
2022-11-01T13:05:00.407Z,101720.97
2022-11-01T13:08:12.778Z,101719.47
2022-11-01T13:11:26.520Z,101720.25
2022-11-01T13:14:44.313Z,101711.63
2022-11-01T13:18:02.511Z,101715.88
2022-11-01T13:21:14.035Z,101702.28
2022-11-01T13:24:32.645Z,101703.88
2022-11-01T13:27:42.781Z,101697.91
2022-11-01T13:30:56.465Z,101696.22
2022-11-01T13:34:19.881Z,101696.19
2022-11-01T13:37:33.329Z,101696.19
2022-11-01T13:40:44.124Z,101699.66
2022-11-01T13:43:53.236Z,101700.59
2022-11-01T13:47:14.132Z,101708.16
2022-11-01T13:50:54.191Z,101697.03
2022-11-01T13:54:02.617Z,101694.44
2022-11-01T13:57:13.521Z,101685.16
2022-11-01T14:00:41.456Z,101688.63
2022-11-01T14:03:49.828Z,101696.25
2022-11-01T14:07:16.200Z,101687.72
2022-11-01T14:10:51.310Z,101696.25
2022-11-01T14:13:55.916Z,101687.06
2022-11-01T14:18:01.607Z,101687.06
2022-11-01T14:21:27.842Z,101698.25
2022-11-01T14:24:35.826Z,101691.34
2022-11-01T14:27:48.819Z,101684.50
2022-11-01T14:30:56.499Z,101690.56
2022-11-01T14:34:03.669Z,101691.34
2022-11-01T14:37:21.595Z,101687.13
2022-11-01T14:40:36.247Z,101690.59
2022-11-01T14:43:45.220Z,101683.75
2022-11-01T14:46:51.282Z,101683.72
2022-11-01T14:49:58.238Z,101687.13
2022-11-01T14:53:09.900Z,101680.31
2022-11-01T14:56:18.560Z,101681.19
2022-11-01T14:59:25.533Z,101671.81
2022-11-01T15:02:30.711Z,101671.81
2022-11-01T15:05:44.169Z,101672.66
2022-11-01T15:08:48.936Z,101676.94
2022-11-01T15:12:04.138Z,101681.19
2022-11-01T15:15:15.829Z,101681.41
2022-11-01T15:18:22.253Z,101678.88
2022-11-01T15:21:31.083Z,101666.88
2022-11-01T15:24:36.918Z,101664.38
2022-11-01T15:27:45.270Z,101670.28
2022-11-01T15:30:55.843Z,101660.91
2022-11-01T15:34:03.123Z,101655.78
2022-11-01T15:37:23.180Z,101654.09
2022-11-01T15:40:32.054Z,101654.97
2022-11-01T15:43:38.209Z,101640.44
2022-11-01T15:46:43.720Z,101648.97
2022-11-01T15:49:51.299Z,101652.50
2022-11-01T15:52:58.100Z,101652.44
2022-11-01T15:56:06.082Z,101649.97
2022-11-01T15:59:21.969Z,101646.56
2022-11-01T16:02:32.353Z,101639.78
2022-11-01T16:05:42.496Z,101650.06
2022-11-01T16:08:52.018Z,101645.03
2022-11-01T16:11:57.761Z,101653.50
2022-11-01T16:15:07.465Z,101651.75
2022-11-01T16:18:18.076Z,101661.22
2022-11-01T16:21:30.102Z,101651.84
2022-11-01T16:24:34.863Z,101657.84
2022-11-01T16:27:58.690Z,101648.50
2022-11-01T16:31:04.926Z,101659.56
2022-11-01T16:34:24.825Z,101638.28
2022-11-01T16:37:30.993Z,101643.41
2022-11-01T16:40:38.343Z,101637.50
2022-11-01T16:43:44.004Z,101629.75
2022-11-01T16:46:50.105Z,101638.34
2022-11-01T16:49:55.724Z,101623.88
2022-11-01T16:53:00.905Z,101633.22
2022-11-01T16:56:35.745Z,101627.25
2022-11-01T16:59:42.101Z,101627.41
2022-11-01T17:02:49.121Z,101633.69
2022-11-01T17:05:56.372Z,101626.66
2022-11-01T17:09:01.328Z,101629.16
2022-11-01T17:12:06.520Z,101627.41
2022-11-01T17:15:13.341Z,101633.31
2022-11-01T17:18:25.624Z,101633.31
2022-11-01T17:21:33.966Z,101632.50
2022-11-01T17:24:39.390Z,101624.88
2022-11-01T17:27:44.115Z,101624.94
2022-11-01T17:30:49.513Z,101626.56
2022-11-01T17:33:56.133Z,101624.94
2022-11-01T17:37:00.840Z,101637.88
2022-11-01T17:40:06.703Z,101633.44
2022-11-01T17:43:17.812Z,101622.34
2022-11-01T17:46:26.630Z,101615.75
2022-11-01T17:49:32.631Z,101613.94
2022-11-01T17:52:37.312Z,101607.06
2022-11-01T17:55:42.581Z,101605.38
2022-11-01T17:58:52.131Z,101612.25
2022-11-01T18:01:57.093Z,101605.50
2022-11-01T18:05:03.165Z,101610.66
2022-11-01T18:08:17.754Z,101607.97
2022-11-01T18:11:39.356Z,101607.88
2022-11-01T18:18:22.223Z,101602.06
2022-11-01T18:21:33.661Z,101603.09
2022-11-01T18:24:43.791Z,101602.28
2022-11-01T18:27:48.461Z,101604.75
2022-11-01T18:30:57.220Z,101607.34
2022-11-01T18:34:08.054Z,101597.13
2022-11-01T18:37:25.882Z,101574.06
2022-11-01T18:40:47.336Z,101573.38
2022-11-01T18:43:54.316Z,101575.91
2022-11-01T18:47:05.268Z,101569.13
2022-11-01T18:50:17.942Z,101567.41
2022-11-01T18:53:25.167Z,101570.75
2022-11-01T18:56:31.302Z,101575.00
2022-11-01T18:59:39.409Z,101592.16
2022-11-01T19:02:44.141Z,101592.03
2022-11-01T19:05:48.834Z,101589.59
2022-11-01T19:08:58.005Z,101602.50
2022-11-01T19:12:13.038Z,101608.53
2022-11-01T19:15:24.542Z,101598.16
2022-11-01T19:18:29.459Z,101583.66
2022-11-01T19:21:35.772Z,101584.47
2022-11-01T19:24:42.019Z,101576.72
2022-11-01T19:27:47.614Z,101587.03
2022-11-01T19:30:53.756Z,101577.56
2022-11-01T19:34:02.143Z,101570.81
2022-11-01T19:37:20.681Z,101577.69
2022-11-01T19:40:34.212Z,101576.63
2022-11-01T19:43:38.869Z,101575.91
2022-11-01T19:46:43.483Z,101581.78
2022-11-01T19:49:48.528Z,101580.00
2022-11-01T19:52:55.041Z,101594.50
2022-11-01T19:56:03.834Z,101593.59
2022-11-01T19:59:13.289Z,101588.47
2022-11-01T20:02:23.001Z,101600.41
2022-11-01T20:05:30.773Z,101599.50
2022-11-01T20:08:35.492Z,101605.53
2022-11-01T20:11:41.565Z,101597.06
2022-11-01T20:14:46.624Z,101591.91
2022-11-01T20:17:51.994Z,101589.28
2022-11-01T20:20:57.692Z,101587.63
2022-11-01T20:24:03.903Z,101581.59
2022-11-01T20:27:10.288Z,101580.66
2022-11-01T20:30:17.260Z,101579.09
2022-11-01T20:33:22.266Z,101573.09
2022-11-01T20:36:27.192Z,101579.16
2022-11-01T20:39:32.250Z,101572.25
2022-11-01T20:42:38.524Z,101568.69
2022-11-01T20:45:43.563Z,101561.16
2022-11-01T20:48:48.509Z,101555.94
2022-11-01T20:51:53.275Z,101550.94
2022-11-01T20:54:57.921Z,101550.88
2022-11-01T20:58:04.427Z,101539.66
2022-11-01T21:01:15.888Z,101537.13
2022-11-01T21:04:20.993Z,101531.91
2022-11-01T21:07:26.556Z,101522.56
2022-11-01T21:10:34.893Z,101513.19
2022-11-01T21:13:45.705Z,101514.91
2022-11-01T21:16:52.856Z,101518.25
2022-11-01T21:19:57.564Z,101496.97
2022-11-01T21:23:15.469Z,101504.66
2022-11-01T21:26:23.548Z,101499.53
2022-11-01T21:29:31.055Z,101501.16
2022-11-01T21:32:42.520Z,101498.63
2022-11-01T21:35:50.321Z,101499.41
2022-11-01T21:38:56.571Z,101486.59
2022-11-01T21:42:04.291Z,101488.38
2022-11-01T21:45:31.531Z,101491.72
2022-11-01T21:48:36.148Z,101479.84
2022-11-01T21:51:40.983Z,101478.06
2022-11-01T21:54:46.396Z,101476.63
2022-11-01T21:57:51.055Z,101473.09
2022-11-01T22:00:56.960Z,101479.84
2022-11-01T22:04:01.975Z,101472.13
2022-11-01T22:07:08.685Z,101462.69
2022-11-01T22:10:13.332Z,101462.63
2022-11-01T22:13:18.241Z,101472.09
2022-11-01T22:16:24.313Z,101470.41
2022-11-01T22:19:29.390Z,101470.47
2022-11-01T22:22:34.195Z,101467.94
2022-11-01T22:25:38.896Z,101463.56
2022-11-01T22:28:43.643Z,101462.81
2022-11-01T22:31:49.917Z,101455.03
2022-11-01T22:34:54.523Z,101454.19
2022-11-01T22:37:59.221Z,101457.59
2022-11-01T22:41:11.914Z,101449.91
2022-11-01T22:44:18.857Z,101455.88
2022-11-01T22:47:28.543Z,101454.94
2022-11-01T22:50:33.179Z,101450.56
2022-11-01T22:53:37.992Z,101451.41
2022-11-01T22:56:44.639Z,101448.91
2022-11-01T22:59:53.736Z,101446.31
2022-11-01T23:03:04.317Z,101447.16
2022-11-01T23:06:33.008Z,101451.25
2022-11-01T23:09:38.321Z,101453.06
2022-11-01T23:13:00.543Z,101447.91
2022-11-01T23:16:21.689Z,101441.78
2022-11-01T23:19:28.095Z,101440.22
2022-11-01T23:22:36.204Z,101434.22
2022-11-01T23:25:40.996Z,101440.13
2022-11-01T23:28:50.635Z,101439.22
2022-11-01T23:31:55.247Z,101442.59
2022-11-01T23:35:11.726Z,101438.31
2022-11-01T23:38:20.805Z,101438.25
2022-11-01T23:41:29.143Z,101433.13
2022-11-01T23:44:36.957Z,101429.59
2022-11-01T23:47:43.221Z,101428.75
2022-11-01T23:50:50.399Z,101430.47
2022-11-01T23:53:56.288Z,101425.34
2022-11-01T23:57:00.930Z,101421.06
